Georgis Nikolos — SXPX — position and weather

sailwx.info

Track history (hours):
 
Tides and Currents Weather Stations Pressure Air Temp Water Temp Dewpoint Dewpoint Depression Visibility Wind Speed Wind Dir Waves Ship Positions

Georgis Nikolos

Last reported at 2018-May-26 13:34 UTC. Time now 2018-May-27 03:23 UTC.
Position N 40°25' W 073°33'.

Length 228 m; draft 8.5 m.

Type: Tanker. MMSI: 240061000.

Date/timePositionNaut miles runAvg speedWind from/ knotsBaromVisibWave heightAir tempDewpointWater temp
2018-May-26 13:34N 40°25' W 073°33'112.0
2018-May-26 13:28N 40°25' W 073°35'1111.5
2018-May-26 12:29N 40°27' W 073°49'510.7
2018-May-26 12:00N 40°29' W 073°55'611.6
2018-May-26 11:30N 40°33' W 074°02'510.8
2018-May-26 11:00N 40°38' W 074°03'2 4.8
2018-May-26 10:30N 40°39' W 074°06'1 1.2
2018-May-26 10:00N 40°39' W 074°07'0 0.0
2018-May-25 11:56N 40°39' W 074°07'0 0.0
2018-May-25 11:29N 40°39' W 074°07'0 0.0
2018-May-25 10:56N 40°39' W 074°07'0 0.0
2018-May-23 21:56N 40°39' W 074°07'0 0.0
2018-May-23 21:30N 40°39' W 074°07'0 0.3
2018-May-23 21:00N 40°39' W 074°07'2 3.4
2018-May-23 20:30N 40°39' W 074°05'1 2.8
2018-May-23 20:00N 40°38' W 074°03'1 1.6
2018-May-23 19:30N 40°37' W 074°03'0 0.1
2018-May-23 18:58N 40°37' W 074°03'0 0.0
2018-May-23 18:28N 40°37' W 074°03'0 0.1
2018-May-23 17:58N 40°37' W 074°04'0 0.4
2018-May-23 17:16N 40°37' W 074°03'0 0.2
2018-May-23 16:58N 40°37' W 074°03'0 0.0
2018-May-23 16:19N 40°37' W 074°03'0 0.0
2018-May-23 15:58N 40°37' W 074°03'0 0.1
2018-May-23 15:28N 40°37' W 074°03'0 0.0
2018-May-23 14:58N 40°37' W 074°03'0 0.1
2018-May-23 14:19N 40°37' W 074°03'0 0.1
2018-May-23 13:58N 40°37' W 074°03'0 0.1
2018-May-23 13:28N 40°37' W 074°03'0 0.0
2018-May-23 12:58N 40°37' W 074°03'0 0.0
2018-May-23 12:25N 40°37' W 074°03'0 0.0
2018-May-23 11:58N 40°37' W 074°03'0 0.0
2018-May-23 11:28N 40°37' W 074°03'0 0.1
2018-May-23 10:55N 40°37' W 074°03'0 0.3
2018-May-23 10:28N 40°37' W 074°03'0 0.5
2018-May-23 09:58N 40°37' W 074°04'0 0.1
2018-May-23 09:28N 40°37' W 074°03'0 0.1
2018-May-23 08:58N 40°37' W 074°03'0 0.0
2018-May-23 08:28N 40°37' W 074°03'0 0.0
2018-May-23 07:58N 40°37' W 074°03'0 0.0
2018-May-23 07:28N 40°37' W 074°03'0 0.0
2018-May-23 06:58N 40°37' W 074°03'0 0.0
2018-May-23 06:28N 40°37' W 074°03'0 0.0
2018-May-23 05:58N 40°37' W 074°03'0 0.0
2018-May-23 05:28N 40°37' W 074°04'0 0.0
2018-May-23 04:58N 40°37' W 074°03'0 0.4
2018-May-23 04:22N 40°37' W 074°03'0 0.4
2018-May-23 03:58N 40°37' W 074°03'0 0.1
2018-May-23 03:25N 40°37' W 074°03'0 0.1
2018-May-23 02:58N 40°37' W 074°03'0 0.2
2018-May-23 02:28N 40°37' W 074°03'0 0.1
2018-May-23 01:58N 40°37' W 074°03'0 0.1
2018-May-23 01:28N 40°37' W 074°03'0 0.1
2018-May-23 00:58N 40°37' W 074°03'0 0.0
2018-May-23 00:28N 40°37' W 074°03'0 0.0
2018-May-22 23:58N 40°37' W 074°03'0 0.0
2018-May-22 23:28N 40°37' W 074°03'0 0.0
2018-May-22 22:58N 40°37' W 074°03'0 0.1
2018-May-22 22:28N 40°37' W 074°03'0 0.5
2018-May-22 21:58N 40°37' W 074°03'0 0.2
2018-May-22 21:28N 40°37' W 074°03'0 0.1
2018-May-22 20:58N 40°37' W 074°04'0 0.1
2018-May-22 20:28N 40°37' W 074°03'0 0.0
2018-May-22 19:58N 40°37' W 074°03'0 0.0
2018-May-22 19:28N 40°37' W 074°04'0 0.0
2018-May-22 18:55N 40°37' W 074°03'0 0.0
2018-May-22 18:28N 40°37' W 074°04'0 0.0
2018-May-22 17:58N 40°37' W 074°04'0 0.0
2018-May-22 17:25N 40°37' W 074°04'0 0.1
2018-May-22 16:55N 40°37' W 074°04'0 0.1
2018-May-22 16:28N 40°37' W 074°03'0 0.4
2018-May-22 15:55N 40°37' W 074°03'0 0.2
2018-May-22 15:28N 40°37' W 074°03'0 0.1
2018-May-22 14:58N 40°37' W 074°03'0 0.0
2018-May-22 14:28N 40°37' W 074°03'0 0.0
2018-May-22 13:58N 40°37' W 074°03'2 3.4
2018-May-22 13:30N 40°36' W 074°02'5 9.5
2018-May-22 13:00N 40°31' W 073°60'510.6
2018-May-22 12:30N 40°29' W 073°53'5 9.8
2018-May-22 12:00N 40°27' W 073°48'5 9.3
2018-May-22 11:30N 40°27' W 073°41'611.9
2018-May-22 11:00N 40°28' W 073°34'611.8
2018-May-22 10:30N 40°28' W 073°26'4 8.5
2018-May-22 10:00N 40°29' W 073°20'611.3
2018-May-22 09:30N 40°29' W 073°13'611.5
2018-May-22 08:59N 40°30' W 073°05'2811.3
2018-May-22 06:33N 40°31' W 072°29'  
Track history (hours):
 
Tides and Currents Weather Stations Pressure Air Temp Water Temp Dewpoint Dewpoint Depression Visibility Wind Speed Wind Dir Waves Ship Positions

Georgis Nikolos

Last reported at 2018-May-26 13:34 UTC. Time now 2018-May-27 03:23 UTC.
Position N 40°25' W 073°33'.

Length 228 m; draft 8.5 m.

Type: Tanker. MMSI: 240061000.

Date/timePositionNaut miles runAvg speedWind from/ knotsBaromVisibWave heightAir tempDewpointWater temp
2018-May-26 13:34N 40°25' W 073°33'112.0
2018-May-26 13:28N 40°25' W 073°35'1111.5
2018-May-26 12:29N 40°27' W 073°49'510.7
2018-May-26 12:00N 40°29' W 073°55'611.6
2018-May-26 11:30N 40°33' W 074°02'510.8
2018-May-26 11:00N 40°38' W 074°03'2 4.8
2018-May-26 10:30N 40°39' W 074°06'1 1.2
2018-May-26 10:00N 40°39' W 074°07'0 0.0
2018-May-25 11:56N 40°39' W 074°07'0 0.0
2018-May-25 11:29N 40°39' W 074°07'0 0.0
2018-May-25 10:56N 40°39' W 074°07'0 0.0
2018-May-23 21:56N 40°39' W 074°07'0 0.0
2018-May-23 21:30N 40°39' W 074°07'0 0.3
2018-May-23 21:00N 40°39' W 074°07'2 3.4
2018-May-23 20:30N 40°39' W 074°05'1 2.8
2018-May-23 20:00N 40°38' W 074°03'1 1.6
2018-May-23 19:30N 40°37' W 074°03'0 0.1
2018-May-23 18:58N 40°37' W 074°03'0 0.0
2018-May-23 18:28N 40°37' W 074°03'0 0.1
2018-May-23 17:58N 40°37' W 074°04'0 0.4
2018-May-23 17:16N 40°37' W 074°03'0 0.2
2018-May-23 16:58N 40°37' W 074°03'0 0.0
2018-May-23 16:19N 40°37' W 074°03'0 0.0
2018-May-23 15:58N 40°37' W 074°03'0 0.1
2018-May-23 15:28N 40°37' W 074°03'0 0.0
2018-May-23 14:58N 40°37' W 074°03'0 0.1
2018-May-23 14:19N 40°37' W 074°03'0 0.1
2018-May-23 13:58N 40°37' W 074°03'0 0.1
2018-May-23 13:28N 40°37' W 074°03'0 0.0
2018-May-23 12:58N 40°37' W 074°03'0 0.0
2018-May-23 12:25N 40°37' W 074°03'0 0.0
2018-May-23 11:58N 40°37' W 074°03'0 0.0
2018-May-23 11:28N 40°37' W 074°03'0 0.1
2018-May-23 10:55N 40°37' W 074°03'0 0.3
2018-May-23 10:28N 40°37' W 074°03'0 0.5
2018-May-23 09:58N 40°37' W 074°04'0 0.1
2018-May-23 09:28N 40°37' W 074°03'0 0.1
2018-May-23 08:58N 40°37' W 074°03'0 0.0
2018-May-23 08:28N 40°37' W 074°03'0 0.0
2018-May-23 07:58N 40°37' W 074°03'0 0.0
2018-May-23 07:28N 40°37' W 074°03'0 0.0
2018-May-23 06:58N 40°37' W 074°03'0 0.0
2018-May-23 06:28N 40°37' W 074°03'0 0.0
2018-May-23 05:58N 40°37' W 074°03'0 0.0
2018-May-23 05:28N 40°37' W 074°04'0 0.0
2018-May-23 04:58N 40°37' W 074°03'0 0.4
2018-May-23 04:22N 40°37' W 074°03'0 0.4
2018-May-23 03:58N 40°37' W 074°03'0 0.1
2018-May-23 03:25N 40°37' W 074°03'0 0.1
2018-May-23 02:58N 40°37' W 074°03'0 0.2
2018-May-23 02:28N 40°37' W 074°03'0 0.1
2018-May-23 01:58N 40°37' W 074°03'0 0.1
2018-May-23 01:28N 40°37' W 074°03'0 0.1
2018-May-23 00:58N 40°37' W 074°03'0 0.0
2018-May-23 00:28N 40°37' W 074°03'0 0.0
2018-May-22 23:58N 40°37' W 074°03'0 0.0
2018-May-22 23:28N 40°37' W 074°03'0 0.0
2018-May-22 22:58N 40°37' W 074°03'0 0.1
2018-May-22 22:28N 40°37' W 074°03'0 0.5
2018-May-22 21:58N 40°37' W 074°03'0 0.2
2018-May-22 21:28N 40°37' W 074°03'0 0.1
2018-May-22 20:58N 40°37' W 074°04'0 0.1
2018-May-22 20:28N 40°37' W 074°03'0 0.0
2018-May-22 19:58N 40°37' W 074°03'0 0.0
2018-May-22 19:28N 40°37' W 074°04'0 0.0
2018-May-22 18:55N 40°37' W 074°03'0 0.0
2018-May-22 18:28N 40°37' W 074°04'0 0.0
2018-May-22 17:58N 40°37' W 074°04'0 0.0
2018-May-22 17:25N 40°37' W 074°04'0 0.1
2018-May-22 16:55N 40°37' W 074°04'0 0.1
2018-May-22 16:28N 40°37' W 074°03'0 0.4
2018-May-22 15:55N 40°37' W 074°03'0 0.2
2018-May-22 15:28N 40°37' W 074°03'0 0.1
2018-May-22 14:58N 40°37' W 074°03'0 0.0
2018-May-22 14:28N 40°37' W 074°03'0 0.0
2018-May-22 13:58N 40°37' W 074°03'2 3.4
2018-May-22 13:30N 40°36' W 074°02'5 9.5
2018-May-22 13:00N 40°31' W 073°60'510.6
2018-May-22 12:30N 40°29' W 073°53'5 9.8
2018-May-22 12:00N 40°27' W 073°48'5 9.3
2018-May-22 11:30N 40°27' W 073°41'611.9
2018-May-22 11:00N 40°28' W 073°34'611.8
2018-May-22 10:30N 40°28' W 073°26'4 8.5
2018-May-22 10:00N 40°29' W 073°20'611.3
2018-May-22 09:30N 40°29' W 073°13'611.5
2018-May-22 08:59N 40°30' W 073°05'2811.3
2018-May-22 06:33N 40°31' W 072°29'  

Dump ship's entire track history